sensor_id;sensor_type;location;lat;lon;timestamp;pressure;altitude;pressure_sealevel;temperature;humidity
21276;BME280;36472;52.170;20.884;2023-12-20T00:01:41;99634.94;;;7.22;100.00
21276;BME280;36472;52.170;20.884;2023-12-20T00:04:10;99637.00;;;7.17;100.00
21276;BME280;36472;52.170;20.884;2023-12-20T00:06:39;99623.84;;;7.18;100.00
21276;BME280;36472;52.170;20.884;2023-12-20T00:09:08;99620.94;;;7.23;100.00
21276;BME280;36472;52.170;20.884;2023-12-20T00:11:38;99626.16;;;7.23;100.00
21276;BME280;36472;52.170;20.884;2023-12-20T00:14:09;99615.72;;;7.23;100.00
21276;BME280;36472;52.170;20.884;2023-12-20T00:16:38;99611.31;;;7.23;100.00
21276;BME280;36472;52.170;20.884;2023-12-20T00:19:07;99614.75;;;7.24;100.00
21276;BME280;36472;52.170;20.884;2023-12-20T00:21:37;99612.06;;;7.25;100.00
21276;BME280;36472;52.170;20.884;2023-12-20T00:24:06;99612.06;;;7.25;100.00
21276;BME280;36472;52.170;20.884;2023-12-20T00:26:35;99617.91;;;7.29;100.00
21276;BME280;36472;52.170;20.884;2023-12-20T00:29:05;99610.06;;;7.29;100.00
21276;BME280;36472;52.170;20.884;2023-12-20T00:31:34;99607.69;;;7.26;100.00
21276;BME280;36472;52.170;20.884;2023-12-20T00:34:03;99608.31;;;7.29;100.00
21276;BME280;36472;52.170;20.884;2023-12-20T00:36:33;99603.00;;;7.31;100.00
21276;BME280;36472;52.170;20.884;2023-12-20T00:39:02;99606.00;;;7.25;100.00
21276;BME280;36472;52.170;20.884;2023-12-20T00:41:31;99601.69;;;7.24;100.00
21276;BME280;36472;52.170;20.884;2023-12-20T00:44:00;99602.31;;;7.27;100.00
21276;BME280;36472;52.170;20.884;2023-12-20T00:46:30;99603.38;;;7.25;100.00
21276;BME280;36472;52.170;20.884;2023-12-20T00:48:59;99602.31;;;7.27;100.00
21276;BME280;36472;52.170;20.884;2023-12-20T00:51:28;99591.56;;;7.19;100.00
21276;BME280;36472;52.170;20.884;2023-12-20T00:53:57;99593.84;;;7.24;100.00
21276;BME280;36472;52.170;20.884;2023-12-20T00:56:26;99589.56;;;7.23;100.00
21276;BME280;36472;52.170;20.884;2023-12-20T00:58:55;99585.81;;;7.27;100.00
21276;BME280;36472;52.170;20.884;2023-12-20T01:01:24;99583.41;;;7.24;100.00
21276;BME280;36472;52.170;20.884;2023-12-20T01:03:54;99588.44;;;7.27;100.00
21276;BME280;36472;52.170;20.884;2023-12-20T01:06:23;99585.00;;;7.26;100.00
21276;BME280;36472;52.170;20.884;2023-12-20T01:08:52;99590.59;;;7.20;100.00
21276;BME280;36472;52.170;20.884;2023-12-20T01:11:21;99582.13;;;7.17;100.00
21276;BME280;36472;52.170;20.884;2023-12-20T01:13:50;99591.13;;;7.25;100.00
21276;BME280;36472;52.170;20.884;2023-12-20T01:16:19;99590.78;;;7.17;100.00
21276;BME280;36472;52.170;20.884;2023-12-20T01:18:48;99585.56;;;7.17;100.00
21276;BME280;36472;52.170;20.884;2023-12-20T01:21:19;99571.47;;;7.20;100.00
21276;BME280;36472;52.170;20.884;2023-12-20T01:23:47;99570.22;;;7.25;100.00
21276;BME280;36472;52.170;20.884;2023-12-20T01:26:17;99576.00;;;7.30;100.00
21276;BME280;36472;52.170;20.884;2023-12-20T01:28:45;99574.44;;;7.28;100.00
21276;BME280;36472;52.170;20.884;2023-12-20T01:31:14;99570.13;;;7.27;100.00
21276;BME280;36472;52.170;20.884;2023-12-20T01:33:43;99565.75;;;7.27;100.00
21276;BME280;36472;52.170;20.884;2023-12-20T01:36:13;99565.75;;;7.27;100.00
21276;BME280;36472;52.170;20.884;2023-12-20T01:38:43;99559.88;;;7.24;100.00
21276;BME280;36472;52.170;20.884;2023-12-20T01:41:12;99565.00;;;7.25;100.00
21276;BME280;36472;52.170;20.884;2023-12-20T01:43:41;99564.28;;;7.23;100.00
21276;BME280;36472;52.170;20.884;2023-12-20T01:46:19;99555.50;;;7.24;100.00
21276;BME280;36472;52.170;20.884;2023-12-20T01:48:48;99559.69;;;7.27;100.00
21276;BME280;36472;52.170;20.884;2023-12-20T01:51:19;99554.25;;;7.30;100.00
21276;BME280;36472;52.170;20.884;2023-12-20T01:53:49;99554.16;;;7.32;100.00
21276;BME280;36472;52.170;20.884;2023-12-20T01:56:19;99555.59;;;7.23;100.00
21276;BME280;36472;52.170;20.884;2023-12-20T01:58:49;99553.81;;;7.23;100.00
21276;BME280;36472;52.170;20.884;2023-12-20T02:01:19;99548.59;;;7.23;100.00
21276;BME280;36472;52.170;20.884;2023-12-20T02:03:48;99547.56;;;7.26;100.00
21276;BME280;36472;52.170;20.884;2023-12-20T02:06:18;99548.94;;;7.32;100.00
21276;BME280;36472;52.170;20.884;2023-12-20T02:08:51;99541.94;;;7.32;100.00
21276;BME280;36472;52.170;20.884;2023-12-20T02:11:21;99544.63;;;7.30;100.00
21276;BME280;36472;52.170;20.884;2023-12-20T02:13:49;99543.63;;;7.33;100.00
21276;BME280;36472;52.170;20.884;2023-12-20T02:16:19;99531.91;;;7.26;100.00
21276;BME280;36472;52.170;20.884;2023-12-20T02:18:48;99540.56;;;7.26;100.00
21276;BME280;36472;52.170;20.884;2023-12-20T02:21:25;99536.69;;;7.19;100.00
21276;BME280;36472;52.170;20.884;2023-12-20T02:23:53;99538.34;;;7.20;100.00
21276;BME280;36472;52.170;20.884;2023-12-20T02:26:23;99537.31;;;7.23;100.00
21276;BME280;36472;52.170;20.884;2023-12-20T02:28:52;99530.41;;;7.22;100.00
21276;BME280;36472;52.170;20.884;2023-12-20T02:31:23;99511.38;;;7.20;100.00
21276;BME280;36472;52.170;20.884;2023-12-20T02:33:52;99513.88;;;7.21;100.00
21276;BME280;36472;52.170;20.884;2023-12-20T02:36:21;99519.03;;;7.23;100.00
21276;BME280;36472;52.170;20.884;2023-12-20T02:38:51;99506.97;;;7.20;100.00
21276;BME280;36472;52.170;20.884;2023-12-20T02:41:20;99508.47;;;7.24;100.00
21276;BME280;36472;52.170;20.884;2023-12-20T02:43:49;99510.53;;;7.19;100.00
21276;BME280;36472;52.170;20.884;2023-12-20T02:46:18;99523.47;;;7.21;100.00
21276;BME280;36472;52.170;20.884;2023-12-20T02:48:47;99515.78;;;7.19;100.00
21276;BME280;36472;52.170;20.884;2023-12-20T02:51:16;99506.06;;;7.21;100.00
21276;BME280;36472;52.170;20.884;2023-12-20T02:53:45;99507.50;;;7.25;100.00
21276;BME280;36472;52.170;20.884;2023-12-20T02:56:16;99502.38;;;7.24;100.00
21276;BME280;36472;52.170;20.884;2023-12-20T02:58:44;99511.09;;;7.24;100.00
21276;BME280;36472;52.170;20.884;2023-12-20T03:01:14;99505.75;;;7.26;100.00
21276;BME280;36472;52.170;20.884;2023-12-20T03:03:43;99513.88;;;7.21;100.00
21276;BME280;36472;52.170;20.884;2023-12-20T03:06:17;99512.00;;;7.23;100.00
21276;BME280;36472;52.170;20.884;2023-12-20T03:08:46;99505.72;;;7.13;100.00
21276;BME280;36472;52.170;20.884;2023-12-20T03:11:17;99500.56;;;7.11;100.00
21276;BME280;36472;52.170;20.884;2023-12-20T03:13:46;99494.19;;;7.16;100.00
21276;BME280;36472;52.170;20.884;2023-12-20T03:16:15;99491.59;;;7.16;100.00
21276;BME280;36472;52.170;20.884;2023-12-20T03:18:44;99490.56;;;7.18;100.00
21276;BME280;36472;52.170;20.884;2023-12-20T03:21:13;99499.88;;;7.22;100.00
21276;BME280;36472;52.170;20.884;2023-12-20T03:23:42;99497.34;;;7.21;100.00
21276;BME280;36472;52.170;20.884;2023-12-20T03:26:12;99500.72;;;7.23;100.00
21276;BME280;36472;52.170;20.884;2023-12-20T03:28:42;99496.97;;;7.27;100.00
21276;BME280;36472;52.170;20.884;2023-12-20T03:31:11;99486.50;;;7.27;100.00
21276;BME280;36472;52.170;20.884;2023-12-20T03:33:40;99485.56;;;7.28;100.00
21276;BME280;36472;52.170;20.884;2023-12-20T03:36:09;99487.13;;;7.30;100.00
21276;BME280;36472;52.170;20.884;2023-12-20T03:38:38;99491.09;;;7.23;100.00
21276;BME280;36472;52.170;20.884;2023-12-20T03:41:07;99481.47;;;7.24;100.00
21276;BME280;36472;52.170;20.884;2023-12-20T03:43:36;99480.66;;;7.23;100.00
21276;BME280;36472;52.170;20.884;2023-12-20T03:46:08;99480.75;;;7.22;100.00
21276;BME280;36472;52.170;20.884;2023-12-20T03:48:37;99483.34;;;7.22;100.00
21276;BME280;36472;52.170;20.884;2023-12-20T03:51:06;99476.34;;;7.22;100.00
21276;BME280;36472;52.170;20.884;2023-12-20T03:53:35;99495.50;;;7.23;100.00
21276;BME280;36472;52.170;20.884;2023-12-20T03:56:04;99484.09;;;7.24;100.00
21276;BME280;36472;52.170;20.884;2023-12-20T03:58:34;99485.88;;;7.23;100.00
21276;BME280;36472;52.170;20.884;2023-12-20T04:01:03;99472.50;;;7.28;100.00
21276;BME280;36472;52.170;20.884;2023-12-20T04:03:33;99476.06;;;7.27;100.00
21276;BME280;36472;52.170;20.884;2023-12-20T04:06:02;99480.88;;;7.33;100.00
21276;BME280;36472;52.170;20.884;2023-12-20T04:08:31;99490.47;;;7.33;100.00
21276;BME280;36472;52.170;20.884;2023-12-20T04:11:00;99481.91;;;7.30;100.00
21276;BME280;36472;52.170;20.884;2023-12-20T04:13:29;99473.44;;;7.27;100.00
21276;BME280;36472;52.170;20.884;2023-12-20T04:15:58;99482.78;;;7.31;100.00
21276;BME280;36472;52.170;20.884;2023-12-20T04:18:27;99485.91;;;7.36;100.00
21276;BME280;36472;52.170;20.884;2023-12-20T04:20:58;99481.72;;;7.34;100.00
21276;BME280;36472;52.170;20.884;2023-12-20T04:23:27;99482.53;;;7.34;100.00
21276;BME280;36472;52.170;20.884;2023-12-20T04:25:56;99485.56;;;7.28;100.00
21276;BME280;36472;52.170;20.884;2023-12-20T04:28:25;99490.38;;;7.34;100.00
21276;BME280;36472;52.170;20.884;2023-12-20T04:30:54;99479.63;;;7.26;100.00
21276;BME280;36472;52.170;20.884;2023-12-20T04:33:23;99479.19;;;7.32;100.00
21276;BME280;36472;52.170;20.884;2023-12-20T04:35:52;99484.44;;;7.32;100.00
21276;BME280;36472;52.170;20.884;2023-12-20T04:38:22;99475.84;;;7.30;100.00
21276;BME280;36472;52.170;20.884;2023-12-20T04:40:51;99484.63;;;7.29;100.00
21276;BME280;36472;52.170;20.884;2023-12-20T04:43:20;99485.25;;;7.20;100.00
21276;BME280;36472;52.170;20.884;2023-12-20T04:45:49;99485.88;;;7.23;100.00
21276;BME280;36472;52.170;20.884;2023-12-20T04:48:18;99482.97;;;7.28;100.00
21276;BME280;36472;52.170;20.884;2023-12-20T04:50:47;99482.09;;;7.27;100.00
21276;BME280;36472;52.170;20.884;2023-12-20T04:53:16;99481.38;;;7.25;100.00
21276;BME280;36472;52.170;20.884;2023-12-20T04:55:46;99481.03;;;7.17;100.00
21276;BME280;36472;52.170;20.884;2023-12-20T04:58:15;99475.53;;;7.22;100.00
21276;BME280;36472;52.170;20.884;2023-12-20T05:00:45;99477.00;;;7.26;100.00
21276;BME280;36472;52.170;20.884;2023-12-20T05:03:14;99472.50;;;7.28;100.00
21276;BME280;36472;52.170;20.884;2023-12-20T05:05:43;99475.84;;;7.30;100.00
21276;BME280;36472;52.170;20.884;2023-12-20T05:12:46;99464.78;;;7.26;100.00
21276;BME280;36472;52.170;20.884;2023-12-20T05:15:15;99463.94;;;7.26;100.00
21276;BME280;36472;52.170;20.884;2023-12-20T05:17:44;99460.16;;;7.30;100.00
21276;BME280;36472;52.170;20.884;2023-12-20T05:20:13;99458.50;;;7.29;100.00
21276;BME280;36472;52.170;20.884;2023-12-20T05:22:43;99468.84;;;7.30;100.00
21276;BME280;36472;52.170;20.884;2023-12-20T05:25:12;99456.84;;;7.28;100.00
21276;BME280;36472;52.170;20.884;2023-12-20T05:27:41;99463.63;;;7.30;100.00
21276;BME280;36472;52.170;20.884;2023-12-20T05:30:13;99465.59;;;7.27;100.00
21276;BME280;36472;52.170;20.884;2023-12-20T05:32:42;99455.34;;;7.24;100.00
21276;BME280;36472;52.170;20.884;2023-12-20T05:35:11;99462.34;;;7.23;100.00
21276;BME280;36472;52.170;20.884;2023-12-20T05:37:41;99462.25;;;7.25;100.00
21276;BME280;36472;52.170;20.884;2023-12-20T05:40:11;99469.16;;;7.26;100.00
21276;BME280;36472;52.170;20.884;2023-12-20T05:42:40;99467.28;;;7.28;100.00
21276;BME280;36472;52.170;20.884;2023-12-20T05:45:09;99471.22;;;7.21;100.00
21276;BME280;36472;52.170;20.884;2023-12-20T05:47:40;99460.91;;;7.19;100.00
21276;BME280;36472;52.170;20.884;2023-12-20T05:50:09;99459.75;;;7.23;100.00
21276;BME280;36472;52.170;20.884;2023-12-20T05:52:38;99466.66;;;7.24;100.00
21276;BME280;36472;52.170;20.884;2023-12-20T05:55:07;99466.75;;;7.23;100.00
21276;BME280;36472;52.170;20.884;2023-12-20T05:57:36;99459.75;;;7.23;100.00
21276;BME280;36472;52.170;20.884;2023-12-20T06:00:07;99456.31;;;7.23;100.00
21276;BME280;36472;52.170;20.884;2023-12-20T06:02:42;99448.47;;;7.23;100.00
21276;BME280;36472;52.170;20.884;2023-12-20T06:05:12;99446.97;;;7.19;100.00
21276;BME280;36472;52.170;20.884;2023-12-20T06:07:41;99453.88;;;7.20;100.00
21276;BME280;36472;52.170;20.884;2023-12-20T06:10:10;99456.19;;;7.24;100.00
21276;BME280;36472;52.170;20.884;2023-12-20T06:12:40;99447.41;;;7.13;100.00
21276;BME280;36472;52.170;20.884;2023-12-20T06:15:09;99456.41;;;7.21;100.00
21276;BME280;36472;52.170;20.884;2023-12-20T06:17:38;99461.81;;;7.18;100.00
21276;BME280;36472;52.170;20.884;2023-12-20T06:20:10;99457.41;;;7.19;100.00
21276;BME280;36472;52.170;20.884;2023-12-20T06:22:40;99463.59;;;7.18;100.00
21276;BME280;36472;52.170;20.884;2023-12-20T06:25:08;99458.28;;;7.19;100.00
21276;BME280;36472;52.170;20.884;2023-12-20T06:27:38;99456.78;;;7.15;100.00
21276;BME280;36472;52.170;20.884;2023-12-20T06:30:08;99455.78;;;7.18;100.00
21276;BME280;36472;52.170;20.884;2023-12-20T06:32:38;99461.59;;;7.08;100.00
21276;BME280;36472;52.170;20.884;2023-12-20T06:35:09;99458.56;;;7.15;100.00
21276;BME280;36472;52.170;20.884;2023-12-20T06:37:38;99457.41;;;7.19;100.00
21276;BME280;36472;52.170;20.884;2023-12-20T06:40:11;99453.16;;;7.18;100.00
21276;BME280;36472;52.170;20.884;2023-12-20T06:42:46;99451.66;;;7.01;100.00
21276;BME280;36472;52.170;20.884;2023-12-20T06:45:31;99462.13;;;7.14;100.00
21276;BME280;36472;52.170;20.884;2023-12-20T06:48:00;99451.66;;;7.14;100.00
21276;BME280;36472;52.170;20.884;2023-12-20T06:50:31;99456.06;;;7.13;100.00
21276;BME280;36472;52.170;20.884;2023-12-20T06:53:00;99458.06;;;7.22;100.00
21276;BME280;36472;52.170;20.884;2023-12-20T06:55:35;99463.72;;;7.29;100.00
21276;BME280;36472;52.170;20.884;2023-12-20T06:58:05;99455.97;;;7.27;100.00
21276;BME280;36472;52.170;20.884;2023-12-20T07:00:35;99460.16;;;7.30;100.00
21276;BME280;36472;52.170;20.884;2023-12-20T07:03:04;99453.34;;;7.27;100.00
21276;BME280;36472;52.170;20.884;2023-12-20T07:05:35;99454.03;;;7.31;100.00
21276;BME280;36472;52.170;20.884;2023-12-20T07:08:05;99457.03;;;7.25;100.00
21276;BME280;36472;52.170;20.884;2023-12-20T07:10:34;99450.53;;;7.30;100.00
21276;BME280;36472;52.170;20.884;2023-12-20T07:13:03;99463.50;;;7.32;100.00
21276;BME280;36472;52.170;20.884;2023-12-20T07:15:32;99459.34;;;7.29;100.00
21276;BME280;36472;52.170;20.884;2023-12-20T07:18:02;99463.31;;;7.35;100.00
21276;BME280;36472;52.170;20.884;2023-12-20T07:20:30;99465.94;;;7.35;100.00
21276;BME280;36472;52.170;20.884;2023-12-20T07:23:00;99468.94;;;7.29;100.00
21276;BME280;36472;52.170;20.884;2023-12-20T07:25:29;99470.19;;;7.23;100.00
21276;BME280;36472;52.170;20.884;2023-12-20T07:28:01;99482.25;;;7.26;100.00
21276;BME280;36472;52.170;20.884;2023-12-20T07:30:30;99460.56;;;7.24;100.00
21276;BME280;36472;52.170;20.884;2023-12-20T07:32:59;99468.31;;;7.25;100.00
21276;BME280;36472;52.170;20.884;2023-12-20T07:35:28;99460.38;;;7.27;100.00
21276;BME280;36472;52.170;20.884;2023-12-20T07:37:59;99461.19;;;7.27;100.00
21276;BME280;36472;52.170;20.884;2023-12-20T07:40:30;99462.56;;;7.20;100.00
21276;BME280;36472;52.170;20.884;2023-12-20T07:42:59;99474.06;;;7.18;100.00
21276;BME280;36472;52.170;20.884;2023-12-20T07:49:59;99465.69;;;7.13;100.00
21276;BME280;36472;52.170;20.884;2023-12-20T07:52:29;99468.69;;;7.06;100.00
21276;BME280;36472;52.170;20.884;2023-12-20T07:55:00;99456.88;;;7.14;100.00
21276;BME280;36472;52.170;20.884;2023-12-20T07:57:30;99450.41;;;7.06;100.00
21276;BME280;36472;52.170;20.884;2023-12-20T07:59:59;99458.97;;;7.08;100.00
21276;BME280;36472;52.170;20.884;2023-12-20T08:02:31;99461.47;;;7.10;100.00
21276;BME280;36472;52.170;20.884;2023-12-20T08:05:00;99460.66;;;7.09;100.00
21276;BME280;36472;52.170;20.884;2023-12-20T08:07:29;99460.75;;;7.08;100.00
21276;BME280;36472;52.170;20.884;2023-12-20T08:09:59;99460.13;;;7.04;100.00
21276;BME280;36472;52.170;20.884;2023-12-20T08:12:28;99467.66;;;7.09;100.00
21276;BME280;36472;52.170;20.884;2023-12-20T08:14:57;99457.09;;;7.10;100.00
21276;BME280;36472;52.170;20.884;2023-12-20T08:17:26;99457.63;;;7.16;100.00
21276;BME280;36472;52.170;20.884;2023-12-20T08:19:56;99467.97;;;7.17;100.00
21276;BME280;36472;52.170;20.884;2023-12-20T08:22:25;99455.97;;;7.15;100.00
21276;BME280;36472;52.170;20.884;2023-12-20T08:24:54;99460.75;;;7.21;100.00
21276;BME280;36472;52.170;20.884;2023-12-20T08:27:24;99451.47;;;7.17;100.00
21276;BME280;36472;52.170;20.884;2023-12-20T08:29:54;99445.59;;;7.13;100.00
21276;BME280;36472;52.170;20.884;2023-12-20T08:32:26;99451.28;;;7.20;100.00
21276;BME280;36472;52.170;20.884;2023-12-20T08:34:55;99455.78;;;7.18;100.00
21276;BME280;36472;52.170;20.884;2023-12-20T08:37:24;99457.41;;;7.19;100.00
21276;BME280;36472;52.170;20.884;2023-12-20T08:39:53;99453.88;;;7.20;100.00
21276;BME280;36472;52.170;20.884;2023-12-20T08:42:23;99455.34;;;7.24;100.00
21276;BME280;36472;52.170;20.884;2023-12-20T08:44:58;99456.94;;;7.26;100.00
21276;BME280;36472;52.170;20.884;2023-12-20T08:47:28;99458.91;;;7.23;100.00
21276;BME280;36472;52.170;20.884;2023-12-20T08:49:58;99458.16;;;7.21;100.00
21276;BME280;36472;52.170;20.884;2023-12-20T08:52:28;99450.63;;;7.16;100.00
21276;BME280;36472;52.170;20.884;2023-12-20T08:54:57;99461.19;;;7.27;100.00
21276;BME280;36472;52.170;20.884;2023-12-20T08:57:28;99455.03;;;7.28;100.00
21276;BME280;36472;52.170;20.884;2023-12-20T08:59:57;99449.19;;;7.25;100.00
21276;BME280;36472;52.170;20.884;2023-12-20T09:07:00;99450.53;;;7.18;100.00
21276;BME280;36472;52.170;20.884;2023-12-20T09:09:29;99440.53;;;7.24;100.00
21276;BME280;36472;52.170;20.884;2023-12-20T09:12:00;99442.38;;;7.22;100.00
21276;BME280;36472;52.170;20.884;2023-12-20T09:14:30;99437.16;;;7.22;100.00
21276;BME280;36472;52.170;20.884;2023-12-20T09:16:59;99433.59;;;7.23;100.00
21276;BME280;36472;52.170;20.884;2023-12-20T09:19:28;99437.25;;;7.21;100.00
21276;BME280;36472;52.170;20.884;2023-12-20T09:21:58;99435.91;;;7.28;100.00
21276;BME280;36472;52.170;20.884;2023-12-20T09:24:27;99432.34;;;7.29;100.00
21276;BME280;36472;52.170;20.884;2023-12-20T09:26:56;99423.59;;;7.30;100.00
21276;BME280;36472;52.170;20.884;2023-12-20T09:29:24;99423.44;;;7.19;100.00
21276;BME280;36472;52.170;20.884;2023-12-20T09:31:55;99421.06;;;7.28;100.00
21276;BME280;36472;52.170;20.884;2023-12-20T09:34:25;99411.97;;;7.34;100.00
21276;BME280;36472;52.170;20.884;2023-12-20T09:36:55;99402.78;;;7.28;100.00
21276;BME280;36472;52.170;20.884;2023-12-20T09:39:24;99406.53;;;7.37;100.00
21276;BME280;36472;52.170;20.884;2023-12-20T09:42:01;99408.22;;;7.38;100.00
21276;BME280;36472;52.170;20.884;2023-12-20T09:44:31;99417.19;;;7.34;100.00
21276;BME280;36472;52.170;20.884;2023-12-20T09:47:03;99410.31;;;7.33;100.00
21276;BME280;36472;52.170;20.884;2023-12-20T09:49:33;99404.47;;;7.29;100.00
21276;BME280;36472;52.170;20.884;2023-12-20T09:52:06;99407.19;;;7.28;100.00
21276;BME280;36472;52.170;20.884;2023-12-20T09:54:36;99398.38;;;7.29;100.00
21276;BME280;36472;52.170;20.884;2023-12-20T09:57:05;99399.34;;;7.28;100.00
21276;BME280;36472;52.170;20.884;2023-12-20T09:59:34;99404.66;;;7.26;100.00
21276;BME280;36472;52.170;20.884;2023-12-20T10:02:12;99396.63;;;7.29;100.00
21276;BME280;36472;52.170;20.884;2023-12-20T10:04:47;99397.66;;;7.27;100.00
21276;BME280;36472;52.170;20.884;2023-12-20T10:07:16;99389.19;;;7.23;100.00
21276;BME280;36472;52.170;20.884;2023-12-20T10:09:46;99386.38;;;7.26;100.00
21276;BME280;36472;52.170;20.884;2023-12-20T10:12:16;99398.81;;;7.23;100.00
21276;BME280;36472;52.170;20.884;2023-12-20T10:14:45;99404.75;;;7.25;100.00
21276;BME280;36472;52.170;20.884;2023-12-20T10:17:16;99389.91;;;7.25;100.00
21276;BME280;36472;52.170;20.884;2023-12-20T10:19:45;99385.22;;;7.18;100.00
21276;BME280;36472;52.170;20.884;2023-12-20T10:22:15;99393.06;;;7.18;100.00
21276;BME280;36472;52.170;20.884;2023-12-20T10:24:45;99387.59;;;7.21;100.00
21276;BME280;36472;52.170;20.884;2023-12-20T10:27:18;99390.13;;;7.09;100.00
21276;BME280;36472;52.170;20.884;2023-12-20T10:29:47;99386.03;;;7.18;100.00
21276;BME280;36472;52.170;20.884;2023-12-20T10:32:26;99375.25;;;7.10;100.00
21276;BME280;36472;52.170;20.884;2023-12-20T10:34:56;99372.34;;;7.15;100.00
21276;BME280;36472;52.170;20.884;2023-12-20T10:37:25;99364.41;;;7.16;100.00
21276;BME280;36472;52.170;20.884;2023-12-20T10:39:55;99363.34;;;7.19;100.00
21276;BME280;36472;52.170;20.884;2023-12-20T10:42:26;99372.56;;;7.11;100.00
21276;BME280;36472;52.170;20.884;2023-12-20T10:44:58;99365.13;;;7.18;100.00
21276;BME280;36472;52.170;20.884;2023-12-20T10:47:31;99371.91;;;7.21;100.00
21276;BME280;36472;52.170;20.884;2023-12-20T10:50:01;99377.03;;;7.22;100.00
21276;BME280;36472;52.170;20.884;2023-12-20T10:52:36;99373.59;;;7.22;100.00
21276;BME280;36472;52.170;20.884;2023-12-20T10:55:07;99367.75;;;7.18;100.00
21276;BME280;36472;52.170;20.884;2023-12-20T10:57:36;99361.25;;;7.24;100.00
21276;BME280;36472;52.170;20.884;2023-12-20T11:00:13;99358.34;;;7.28;100.00
21276;BME280;36472;52.170;20.884;2023-12-20T11:02:44;99363.38;;;7.32;100.00
21276;BME280;36472;52.170;20.884;2023-12-20T11:05:26;99353.03;;;7.30;100.00
21276;BME280;36472;52.170;20.884;2023-12-20T11:08:06;99347.28;;;7.25;100.00
21276;BME280;36472;52.170;20.884;2023-12-20T11:10:45;99341.22;;;7.24;100.00
21276;BME280;36472;52.170;20.884;2023-12-20T11:13:26;99340.47;;;7.09;100.00
21276;BME280;36472;52.170;20.884;2023-12-20T11:15:58;99334.09;;;7.26;100.00
21276;BME280;36472;52.170;20.884;2023-12-20T11:18:31;99317.59;;;7.26;100.00
21276;BME280;36472;52.170;20.884;2023-12-20T11:21:01;99323.97;;;7.35;100.00
21276;BME280;36472;52.170;20.884;2023-12-20T11:23:33;99321.13;;;7.38;100.00
21276;BME280;36472;52.170;20.884;2023-12-20T11:26:03;99322.06;;;7.24;100.00
21276;BME280;36472;52.170;20.884;2023-12-20T11:28:32;99311.22;;;7.30;100.00
21276;BME280;36472;52.170;20.884;2023-12-20T11:31:02;99320.50;;;7.34;100.00
21276;BME280;36472;52.170;20.884;2023-12-20T11:33:36;99313.09;;;7.28;100.00
21276;BME280;36472;52.170;20.884;2023-12-20T11:36:14;99310.47;;;7.28;100.00
21276;BME280;36472;52.170;20.884;2023-12-20T11:38:57;99310.78;;;7.36;100.00
21276;BME280;36472;52.170;20.884;2023-12-20T11:41:27;99297.94;;;7.33;100.00
21276;BME280;36472;52.170;20.884;2023-12-20T11:43:56;99296.34;;;7.30;100.00
21276;BME280;36472;52.170;20.884;2023-12-20T11:46:28;99291.13;;;7.30;100.00
21276;BME280;36472;52.170;20.884;2023-12-20T11:49:00;99296.97;;;7.34;100.00
21276;BME280;36472;52.170;20.884;2023-12-20T11:51:30;99292.09;;;7.29;100.00
21276;BME280;36472;52.170;20.884;2023-12-20T11:53:59;99288.97;;;7.24;100.00
21276;BME280;36472;52.170;20.884;2023-12-20T11:56:28;99293.94;;;7.27;100.00
21276;BME280;36472;52.170;20.884;2023-12-20T11:58:57;99293.13;;;7.14;100.00
21276;BME280;36472;52.170;20.884;2023-12-20T12:01:49;99293.75;;;7.05;100.00
21276;BME280;36472;52.170;20.884;2023-12-20T12:04:21;99288.63;;;7.03;100.00
21276;BME280;36472;52.170;20.884;2023-12-20T12:06:50;99290.31;;;7.04;100.00
21276;BME280;36472;52.170;20.884;2023-12-20T12:09:19;99289.88;;;6.98;100.00
21276;BME280;36472;52.170;20.884;2023-12-20T12:11:48;99290.00;;;6.96;100.00
21276;BME280;36472;52.170;20.884;2023-12-20T12:14:17;99285.81;;;6.81;100.00
21276;BME280;36472;52.170;20.884;2023-12-20T12:16:48;99287.50;;;6.82;100.00
21276;BME280;36472;52.170;20.884;2023-12-20T12:19:23;99291.16;;;6.92;100.00
21276;BME280;36472;52.170;20.884;2023-12-20T12:22:04;99246.41;;;6.71;100.00
21276;BME280;36472;52.170;20.884;2023-12-20T12:24:35;99279.75;;;6.93;100.00
21276;BME280;36472;52.170;20.884;2023-12-20T12:27:06;99282.97;;;6.97;100.00
21276;BME280;36472;52.170;20.884;2023-12-20T12:29:36;99271.59;;;6.85;100.00
21276;BME280;36472;52.170;20.884;2023-12-20T12:32:06;99268.78;;;6.88;100.00
21276;BME280;36472;52.170;20.884;2023-12-20T12:34:37;99270.97;;;6.94;100.00
21276;BME280;36472;52.170;20.884;2023-12-20T12:37:07;99265.97;;;6.78;100.00
21276;BME280;36472;52.170;20.884;2023-12-20T12:39:36;99266.38;;;6.72;100.00
21276;BME280;36472;52.170;20.884;2023-12-20T12:42:05;99269.63;;;6.76;100.00
21276;BME280;36472;52.170;20.884;2023-12-20T12:44:34;99269.63;;;6.76;100.00
21276;BME280;36472;52.170;20.884;2023-12-20T12:47:03;99268.69;;;6.77;100.00
21276;BME280;36472;52.170;20.884;2023-12-20T12:49:33;99264.69;;;6.71;100.00
21276;BME280;36472;52.170;20.884;2023-12-20T12:52:04;99258.88;;;6.80;100.00
21276;BME280;36472;52.170;20.884;2023-12-20T12:54:34;99231.34;;;6.49;100.00
21276;BME280;36472;52.170;20.884;2023-12-20T12:57:04;99271.78;;;6.69;100.00
21276;BME280;36472;52.170;20.884;2023-12-20T12:59:34;99230.19;;;6.40;100.00
21276;BME280;36472;52.170;20.884;2023-12-20T13:02:07;99218.22;;;6.38;100.00
21276;BME280;36472;52.170;20.884;2023-12-20T13:09:11;99251.31;;;6.50;100.00
21276;BME280;36472;52.170;20.884;2023-12-20T13:16:12;99259.47;;;6.58;100.00
21276;BME280;36472;52.170;20.884;2023-12-20T13:18:41;99239.00;;;6.52;100.00
21276;BME280;36472;52.170;20.884;2023-12-20T13:25:46;99250.28;;;6.65;100.00
21276;BME280;36472;52.170;20.884;2023-12-20T13:37:23;99255.31;;;6.68;100.00
21276;BME280;36472;52.170;20.884;2023-12-20T13:44:26;99253.94;;;6.76;100.00
21276;BME280;36472;52.170;20.884;2023-12-20T13:46:55;99254.88;;;6.74;100.00